עמוד ראשי
METAR-TAF:

METAR-TAF

שדות תעופה :

Sparrevohn, אלסקה, ארצות הברית

קו רוחב: 61-06N, קו אורך: 155-34W, גובה: 484מטר

תצפית מזג אוויר נוכחית

הדו"ח נערך לפני 54דקות, בשעה 16:55 UTC
רוח 1קשר מכיוון דרום/דרום-מזרח
טמפרטורת 14 צלסיוס
לחות 58%
לחץ 1021 hPa
ראות: 16.1קילומטר
שמיים נקיים

METAR: PASV 151655Z AUTO 16001KT 10SM CLR 14/06 A3014 RMK AO2 SLP197 T01440063

זמן: 09:49 (17:49 UTC)


TAF: חסר

תצפיות ותחזיות מזג אוויר לגבי יותר מ- 4,000 שדות תעופה ברחבי העולם. דוחות METAR ו- TAF.

התחנות הזמינות מסומנות בנקודות צהובות ואדומות על גבי המפה.

העבר את העכבר לנקודה הצבעונית על מנת לראות את שם התחנה.

לאחר מכן, לחץ כדי לראות את תוכן ואת תחזיות מזג האוויר.

כדי לשנות את המפה: לחץ על הכפתורים הירוקים עם הפלוס השחור כדי להתקרב; על הכפתור הירוק עם המקף כדי להתרחק; או בחיצים הירוקים למפות סמוכות.


METAR-TAF: